createdAt,value
2022-10-18T05:56:04.074Z,99.90
2022-10-18T05:58:30.922Z,99.90
2022-10-18T06:01:01.966Z,99.90
2022-10-18T06:03:30.870Z,99.90
2022-10-18T06:06:07.328Z,99.90
2022-10-18T06:08:34.463Z,99.90
2022-10-18T06:11:10.157Z,99.90
2022-10-18T06:13:55.155Z,99.90
2022-10-18T06:16:22.929Z,99.90
2022-10-18T06:18:51.686Z,99.90
2022-10-18T06:21:19.536Z,99.90
2022-10-18T06:23:51.110Z,99.90
2022-10-18T06:26:17.927Z,99.90
2022-10-18T06:28:44.861Z,99.90
2022-10-18T06:31:12.908Z,99.90
2022-10-18T06:33:39.722Z,99.90
2022-10-18T06:36:10.742Z,99.90
2022-10-18T06:38:37.547Z,99.90
2022-10-18T06:41:05.752Z,99.90
2022-10-18T06:43:32.657Z,99.90
2022-10-18T06:46:01.900Z,99.90
2022-10-18T06:48:28.896Z,99.90
2022-10-18T06:50:58.306Z,99.90
2022-10-18T06:53:26.449Z,99.90
2022-10-18T06:55:58.586Z,99.90
2022-10-18T06:58:25.356Z,99.90
2022-10-18T07:00:52.181Z,99.90
2022-10-18T07:03:19.148Z,99.90
2022-10-18T07:05:45.948Z,99.90
2022-10-18T07:08:12.733Z,99.90
2022-10-18T07:10:39.558Z,99.90
2022-10-18T07:13:32.580Z,99.90
2022-10-18T07:16:06.011Z,99.90
2022-10-18T07:18:37.620Z,99.90
2022-10-18T07:21:06.351Z,99.90
2022-10-18T07:23:37.964Z,99.90
2022-10-18T07:26:12.534Z,99.90
2022-10-18T07:28:39.525Z,99.90
2022-10-18T07:31:08.611Z,99.90
2022-10-18T07:33:37.888Z,99.90
2022-10-18T07:36:07.719Z,99.90
2022-10-18T07:38:35.183Z,99.90
2022-10-18T07:41:03.847Z,99.90
2022-10-18T07:43:30.956Z,99.90
2022-10-18T07:46:00.511Z,99.90
2022-10-18T07:48:27.940Z,99.90
2022-10-18T07:50:55.079Z,99.90
2022-10-18T07:53:21.835Z,99.90
2022-10-18T07:55:48.673Z,99.90
2022-10-18T07:58:15.461Z,99.90
2022-10-18T08:00:42.279Z,99.90
2022-10-18T08:03:09.080Z,99.90
2022-10-18T08:05:35.873Z,99.90
2022-10-18T08:08:05.668Z,99.90
2022-10-18T08:10:35.804Z,99.90
2022-10-18T08:13:05.654Z,99.90
2022-10-18T08:15:32.436Z,99.90
2022-10-18T08:17:59.216Z,99.90
2022-10-18T08:20:30.804Z,99.90
2022-10-18T08:23:00.404Z,99.90
2022-10-18T08:25:28.426Z,99.90
2022-10-18T08:27:55.339Z,99.90
2022-10-18T08:30:23.943Z,99.90
2022-10-18T08:32:50.884Z,99.90
2022-10-18T08:35:18.641Z,99.90
2022-10-18T08:37:45.501Z,99.90
2022-10-18T08:40:15.987Z,99.90
2022-10-18T08:43:12.910Z,99.90
2022-10-18T08:45:43.219Z,99.90
2022-10-18T08:48:34.997Z,99.90
2022-10-18T08:51:05.164Z,99.90
2022-10-18T08:53:49.168Z,99.90
2022-10-18T08:56:21.535Z,99.90
2022-10-18T08:58:51.085Z,99.90
2022-10-18T09:01:45.575Z,99.90
2022-10-18T09:04:24.419Z,99.90
2022-10-18T09:07:31.526Z,99.90
2022-10-18T09:10:18.368Z,99.90
2022-10-18T09:12:57.094Z,99.90
2022-10-18T09:15:38.874Z,99.90
2022-10-18T09:18:24.507Z,99.90
2022-10-18T09:20:59.899Z,99.90
2022-10-18T09:23:44.042Z,99.90
2022-10-18T09:26:14.246Z,99.90
2022-10-18T09:28:46.955Z,99.90
2022-10-18T09:31:52.656Z,99.90
2022-10-18T09:34:37.766Z,99.90
2022-10-18T09:37:10.662Z,99.90
2022-10-18T09:39:39.068Z,99.90
2022-10-18T09:42:16.544Z,99.90
2022-10-18T09:44:49.384Z,99.90
2022-10-18T09:47:26.497Z,99.90
2022-10-18T09:50:15.525Z,99.90
2022-10-18T09:52:53.030Z,99.90
2022-10-18T09:55:25.076Z,99.90
2022-10-18T09:57:56.482Z,99.90
2022-10-18T10:00:29.624Z,99.90
2022-10-18T10:02:57.018Z,99.90
2022-10-18T10:05:23.765Z,99.90
2022-10-18T10:07:59.499Z,99.90
2022-10-18T10:10:30.666Z,99.90
2022-10-18T10:13:22.768Z,99.90
2022-10-18T10:16:01.035Z,99.90
2022-10-18T10:18:30.209Z,99.90
2022-10-18T10:21:05.638Z,99.90
2022-10-18T10:23:50.441Z,99.90
2022-10-18T10:26:34.148Z,99.90
2022-10-18T10:29:01.341Z,99.90
2022-10-18T10:31:32.687Z,99.90
2022-10-18T10:34:02.545Z,99.90
2022-10-18T10:36:30.544Z,99.90
2022-10-18T10:39:16.197Z,99.90
2022-10-18T10:41:45.477Z,99.90
2022-10-18T10:44:18.191Z,99.90
2022-10-18T10:46:45.697Z,99.90
2022-10-18T10:49:41.232Z,99.90
2022-10-18T10:52:27.231Z,99.90
2022-10-18T10:57:47.391Z,99.90
2022-10-18T11:00:52.849Z,99.90
2022-10-18T11:03:29.243Z,99.90
2022-10-18T11:05:58.778Z,99.90
2022-10-18T11:08:35.912Z,99.90
2022-10-18T11:11:23.179Z,99.90
2022-10-18T11:58:01.294Z,99.90
2022-10-18T12:01:03.505Z,99.90
2022-10-18T12:03:39.022Z,99.90
2022-10-18T12:06:16.747Z,99.90
2022-10-18T12:08:49.168Z,99.90
2022-10-18T12:11:20.703Z,99.90
2022-10-18T12:13:52.335Z,99.90
2022-10-18T12:16:38.958Z,99.90
2022-10-18T12:19:36.857Z,99.90
2022-10-18T12:32:11.282Z,99.90
2022-10-18T13:34:56.113Z,99.90
2022-10-18T13:37:26.643Z,99.40
2022-10-18T13:42:40.644Z,98.50
2022-10-18T13:45:32.217Z,99.30
2022-10-18T13:48:31.307Z,98.80
2022-10-18T13:51:11.326Z,97.70
2022-10-18T13:54:06.531Z,98.20
2022-10-18T13:57:12.184Z,97.70
2022-10-18T13:59:57.251Z,96.50
2022-10-18T17:10:19.243Z,95.90
2022-10-18T17:12:46.623Z,99.90
2022-10-18T17:15:13.650Z,99.90
2022-10-18T17:17:40.529Z,99.90
2022-10-18T17:20:08.368Z,99.90
2022-10-18T17:22:35.356Z,99.90
2022-10-18T17:25:02.194Z,99.90
2022-10-18T17:27:29.001Z,99.90
2022-10-18T17:29:55.930Z,99.90
2022-10-18T17:32:22.713Z,99.90
2022-10-18T17:34:49.759Z,99.90
2022-10-18T17:37:16.682Z,99.90
2022-10-18T17:39:43.468Z,99.90
2022-10-18T17:42:10.366Z,99.90
2022-10-18T17:44:37.272Z,99.90
2022-10-18T17:47:04.431Z,99.90
2022-10-18T17:49:31.362Z,99.90
2022-10-18T17:54:29.970Z,99.90
2022-10-18T17:56:56.822Z,99.90
2022-10-18T17:59:23.628Z,99.90
2022-10-18T18:01:50.412Z,99.90
2022-10-18T18:04:17.328Z,99.90
2022-10-18T18:06:45.450Z,99.90
2022-10-18T18:09:16.780Z,99.90
2022-10-18T18:11:44.794Z,99.90
2022-10-18T18:46:33.712Z,99.90
2022-10-18T18:49:00.589Z,99.90
2022-10-18T18:51:27.703Z,99.90
2022-10-18T18:53:54.891Z,99.90
2022-10-18T18:56:23.967Z,99.90
2022-10-18T18:58:52.440Z,99.90
2022-10-18T19:01:25.273Z,99.90
2022-10-18T19:03:54.023Z,99.90
2022-10-18T19:06:23.725Z,99.90
2022-10-18T19:08:54.184Z,99.90
2022-10-18T21:35:51.845Z,99.90
2022-10-18T21:38:18.654Z,99.90
2022-10-18T21:40:45.395Z,99.90
2022-10-18T21:43:12.261Z,99.90
2022-10-18T21:45:39.067Z,99.90
2022-10-18T22:22:46.744Z,99.90
2022-10-18T22:25:14.768Z,99.90
2022-10-18T22:27:41.842Z,99.90
2022-10-18T22:30:09.389Z,99.90
2022-10-18T22:32:36.137Z,99.90
2022-10-18T22:35:02.967Z,99.90
2022-10-18T22:37:29.918Z,99.90
2022-10-18T22:39:56.726Z,99.90
2022-10-18T22:42:23.593Z,99.90
2022-10-18T22:44:50.376Z,99.90
2022-10-18T22:47:17.284Z,99.90
